Lesley Pg — MXUG5 — position and weather

sailwx.info

Track history (hours):
 
Tides and Currents Weather Stations Pressure Air Temp Water Temp Dewpoint Dewpoint Depression Visibility Wind Speed Wind Dir Waves Ship Positions

Lesley Pg

Last reported at 2017-Nov-30 04:22 UTC. Time now 2017-Dec-18 05:26 UTC.
Position N 14°14' W 061°12'.
Warning: this ship's position is 18 days out of date.

Length 102 m; draft 6.1 m.

Type: Tanker. MMSI: 234910000.

Date/timePositionNaut miles runAvg speedWind from/ knotsBaromVisibWave heightAir tempDewpointWater temp
2017-Nov-30 04:22N 14°14' W 061°12'19 9.0
2017-Nov-30 02:17N 14°30' W 061°21'9 8.8
2017-Nov-30 01:15N 14°39' W 061°23'5 0.3
2017-Nov-29 06:16N 14°44' W 061°24'5 8.3
2017-Nov-29 05:36N 14°39' W 061°22'2 8.3
2017-Nov-29 05:21N 14°37' W 061°22'3 8.5
2017-Nov-29 04:58N 14°33' W 061°20'  
2017-Nov-26 22:01N 14°30' W 061°19'0 9.9
2017-Nov-26 22:00N 14°30' W 061°19'7 9.9
2017-Nov-26 21:18N 14°37' W 061°21'4610.6
2017-Nov-26 16:55N 15°21' W 061°33'711.2
2017-Nov-26 16:20N 15°27' W 061°36'411.2
2017-Nov-26 16:00N 15°30' W 061°38'611.1
2017-Nov-26 15:30N 15°35' W 061°41'710.6
2017-Nov-26 14:49N 15°41' W 061°46'42 9.9
2017-Nov-26 10:35N 16°16' W 062°10'1 9.6
2017-Nov-26 10:30N 16°16' W 062°11'5 9.4
2017-Nov-26 10:00N 16°20' W 062°13'5 9.4
2017-Nov-26 09:30N 16°24' W 062°16'5 9.7
2017-Nov-26 09:00N 16°28' W 062°19'5 9.9
2017-Nov-26 08:30N 16°32' W 062°21'510.1
2017-Nov-26 08:00N 16°37' W 062°24'510.5
2017-Nov-26 07:30N 16°41' W 062°27'10 0.5
2017-Nov-25 10:46N 16°50' W 062°33'410.5
2017-Nov-25 10:25N 16°46' W 062°32'410.4
2017-Nov-25 10:00N 16°43' W 062°29'510.5
2017-Nov-25 09:30N 16°39' W 062°26'510.7
2017-Nov-25 09:00N 16°34' W 062°23'511.0
2017-Nov-25 08:30N 16°29' W 062°20'610.9
2017-Nov-25 08:00N 16°25' W 062°16'510.9
2017-Nov-25 07:30N 16°20' W 062°13'4511.1
2017-Nov-25 03:27N 15°43' W 061°47'710.8
2017-Nov-25 02:48N 15°37' W 061°43'310.3
2017-Nov-25 02:30N 15°35' W 061°41'510.3
2017-Nov-25 02:00N 15°31' W 061°38'5510.6
2017-Nov-24 20:50N 14°38' W 061°21'411.4
2017-Nov-24 20:27N 14°34' W 061°20'7 0.2
2017-Nov-23 02:14N 14°27' W 061°18'3 8.3
2017-Nov-23 01:53N 14°30' W 061°19'3 8.3
2017-Nov-23 01:30N 14°33' W 061°20'4 8.3
2017-Nov-23 01:00N 14°37' W 061°22'5 8.4
2017-Nov-23 00:21N 14°42' W 061°23'  
Track history (hours):
 
Tides and Currents Weather Stations Pressure Air Temp Water Temp Dewpoint Dewpoint Depression Visibility Wind Speed Wind Dir Waves Ship Positions

Lesley Pg

Last reported at 2017-Nov-30 04:22 UTC. Time now 2017-Dec-18 05:26 UTC.
Position N 14°14' W 061°12'.
Warning: this ship's position is 18 days out of date.

Length 102 m; draft 6.1 m.

Type: Tanker. MMSI: 234910000.

Date/timePositionNaut miles runAvg speedWind from/ knotsBaromVisibWave heightAir tempDewpointWater temp
2017-Nov-30 04:22N 14°14' W 061°12'19 9.0
2017-Nov-30 02:17N 14°30' W 061°21'9 8.8
2017-Nov-30 01:15N 14°39' W 061°23'5 0.3
2017-Nov-29 06:16N 14°44' W 061°24'5 8.3
2017-Nov-29 05:36N 14°39' W 061°22'2 8.3
2017-Nov-29 05:21N 14°37' W 061°22'3 8.5
2017-Nov-29 04:58N 14°33' W 061°20'  
2017-Nov-26 22:01N 14°30' W 061°19'0 9.9
2017-Nov-26 22:00N 14°30' W 061°19'7 9.9
2017-Nov-26 21:18N 14°37' W 061°21'4610.6
2017-Nov-26 16:55N 15°21' W 061°33'711.2
2017-Nov-26 16:20N 15°27' W 061°36'411.2
2017-Nov-26 16:00N 15°30' W 061°38'611.1
2017-Nov-26 15:30N 15°35' W 061°41'710.6
2017-Nov-26 14:49N 15°41' W 061°46'42 9.9
2017-Nov-26 10:35N 16°16' W 062°10'1 9.6
2017-Nov-26 10:30N 16°16' W 062°11'5 9.4
2017-Nov-26 10:00N 16°20' W 062°13'5 9.4
2017-Nov-26 09:30N 16°24' W 062°16'5 9.7
2017-Nov-26 09:00N 16°28' W 062°19'5 9.9
2017-Nov-26 08:30N 16°32' W 062°21'510.1
2017-Nov-26 08:00N 16°37' W 062°24'510.5
2017-Nov-26 07:30N 16°41' W 062°27'10 0.5
2017-Nov-25 10:46N 16°50' W 062°33'410.5
2017-Nov-25 10:25N 16°46' W 062°32'410.4
2017-Nov-25 10:00N 16°43' W 062°29'510.5
2017-Nov-25 09:30N 16°39' W 062°26'510.7
2017-Nov-25 09:00N 16°34' W 062°23'511.0
2017-Nov-25 08:30N 16°29' W 062°20'610.9
2017-Nov-25 08:00N 16°25' W 062°16'510.9
2017-Nov-25 07:30N 16°20' W 062°13'4511.1
2017-Nov-25 03:27N 15°43' W 061°47'710.8
2017-Nov-25 02:48N 15°37' W 061°43'310.3
2017-Nov-25 02:30N 15°35' W 061°41'510.3
2017-Nov-25 02:00N 15°31' W 061°38'5510.6
2017-Nov-24 20:50N 14°38' W 061°21'411.4
2017-Nov-24 20:27N 14°34' W 061°20'7 0.2
2017-Nov-23 02:14N 14°27' W 061°18'3 8.3
2017-Nov-23 01:53N 14°30' W 061°19'3 8.3
2017-Nov-23 01:30N 14°33' W 061°20'4 8.3
2017-Nov-23 01:00N 14°37' W 061°22'5 8.4
2017-Nov-23 00:21N 14°42' W 061°23'  

Dump ship's entire track history